Time;durP1;ratioP1;P1;durP2;ratioP2;P2;SDS_P1;SDS_P2;PMS_P1;PMS_P2;Temp;Humidity;BMP_temperature;BMP_pressure;BME280_temperature;BME280_humidity;BME280_pressure;Samples;Min_cycle;Max_cycle;Signal;HPM_P1;HPM_P2
2021/11/05 00:00:47;;;;;;;;;;;;;;;;;;5066397;28;19931;-50
2021/11/05 00:03:13;;;;;;;;;;;;;;;;;;5066622;28;19957;-54
2021/11/05 00:05:39;;;;;;;;;;;;;;;;;;5072746;28;19908;-53
2021/11/05 00:08:08;;;;;;;;;;;;;;;;;;5086746;28;20398;-53
2021/11/05 00:10:34;;;;;;;;;;;;;;;;;;5086496;28;19912;-51
2021/11/05 00:13:00;;;;;;;;;;;;;;;;;;5087006;28;20032;-53
2021/11/05 00:15:26;;;;;;;;;;;;;;;;;;5084313;28;21898;-56
2021/11/05 00:17:53;;;;;;;;;;;;;;;;;;5066438;28;20295;-52
2021/11/05 00:20:19;;;;;;;;;;;;;;;;;;5072850;28;20160;-50
2021/11/05 00:22:46;;;;;;;;;;;;;;;;;;5086377;28;19904;-53
2021/11/05 00:25:12;;;;;;;;;;;;;;;;;;5084735;28;19920;-53
2021/11/05 00:27:37;;;;;;;;;;;;;;;;;;5084836;28;20323;-50
2021/11/05 00:30:03;;;;;;;;;;;;;;;;;;5086143;28;19911;-53
2021/11/05 00:32:30;;;;;;;;;;;;;;;;;;5085130;28;20108;-50
2021/11/05 00:34:56;;;;;;;;;;;;;;;;;;5086468;28;19912;-51
2021/11/05 00:37:23;;;;;;;;;;;;;;;;;;5067350;28;19915;-51
2021/11/05 00:39:49;;;;;;;;;;;;;;;;;;5066050;28;19904;-53
2021/11/05 00:42:16;;;;;;;;;;;;;;;;;;5065527;28;20402;-50
2021/11/05 00:44:42;;;;;;;;;;;;;;;;;;5071809;28;20404;-52
2021/11/05 00:47:08;;;;;;;;;;;;;;;;;;5072389;28;19924;-53
2021/11/05 00:49:35;;;;;;;;;;;;;;;;;;5065740;28;19912;-51
2021/11/05 00:52:00;;;;;;;;;;;;;;;;;;5066316;28;20223;-52
2021/11/05 00:54:26;;;;;;;;;;;;;;;;;;5066159;28;19943;-53
2021/11/05 00:56:52;;;;;;;;;;;;;;;;;;5066150;28;19908;-50
2021/11/05 00:59:19;;;;;;;;;;;;;;;;;;5063958;28;19958;-50
2021/11/05 01:01:46;;;;;;;;;;;;;;;;;;5065521;28;19931;-52
2021/11/05 01:04:12;;;;;;;;;;;;;;;;;;5065365;28;20399;-52
2021/11/05 01:06:38;;;;;;;;;;;;;;;;;;5065007;28;19930;-51
2021/11/05 01:09:04;;;;;;;;;;;;;;;;;;5065627;28;19904;-53
2021/11/05 01:11:30;;;;;;;;;;;;;;;;;;5065584;28;19994;-50
2021/11/05 01:13:56;;;;;;;;;;;;;;;;;;5065592;28;19923;-51
2021/11/05 01:16:21;;;;;;;;;;;;;;;;;;5064815;28;19963;-50
2021/11/05 01:18:47;;;;;;;;;;;;;;;;;;5065489;28;19904;-50
2021/11/05 01:21:13;;;;;;;;;;;;;;;;;;5064277;28;19950;-51
2021/11/05 01:23:39;;;;;;;;;;;;;;;;;;5065669;28;19905;-52
2021/11/05 01:26:06;;;;;;;;;;;;;;;;;;5064849;28;19958;-50
2021/11/05 01:28:32;;;;;;;;;;;;;;;;;;5064949;28;19944;-53
2021/11/05 01:30:58;;;;;;;;;;;;;;;;;;5065845;28;19954;-50
2021/11/05 01:33:24;;;;;;;;;;;;;;;;;;5064765;28;19909;-49
2021/11/05 01:35:51;;;;;;;;;;;;;;;;;;5064993;28;19943;-51
2021/11/05 01:38:17;;;;;;;;;;;;;;;;;;5064717;28;19916;-51
2021/11/05 01:40:42;;;;;;;;;;;;;;;;;;5065389;28;19911;-52
2021/11/05 01:43:08;;;;;;;;;;;;;;;;;;5065308;28;19905;-50
2021/11/05 01:45:34;;;;;;;;;;;;;;;;;;5064192;28;19904;-52
2021/11/05 01:48:00;;;;;;;;;;;;;;;;;;5066348;28;19913;-52
2021/11/05 01:50:27;;;;;;;;;;;;;;;;;;5065628;28;19919;-49
2021/11/05 01:52:54;;;;;;;;;;;;;;;;;;5064904;28;20307;-52
2021/11/05 01:55:20;;;;;;;;;;;;;;;;;;5067584;28;19908;-52
2021/11/05 01:57:47;;;;;;;;;;;;;;;;;;5085243;28;19912;-50
2021/11/05 02:00:12;;;;;;;;;;;;;;;;;;5085010;28;20322;-53
2021/11/05 02:02:38;;;;;;;;;;;;;;;;;;5085051;28;19904;-52
2021/11/05 02:05:04;;;;;;;;;;;;;;;;;;5082198;28;19900;-50
2021/11/05 02:07:31;;;;;;;;;;;;;;;;;;5065231;28;20339;-52
2021/11/05 02:09:57;;;;;;;;;;;;;;;;;;5065605;28;19959;-51
2021/11/05 02:12:24;;;;;;;;;;;;;;;;;;5064694;28;20388;-53
2021/11/05 02:14:51;;;;;;;;;;;;;;;;;;5064053;28;20132;-52
2021/11/05 02:17:18;;;;;;;;;;;;;;;;;;5076614;28;19932;-51
2021/11/05 02:19:44;;;;;;;;;;;;;;;;;;5084595;28;19904;-50
2021/11/05 02:22:11;;;;;;;;;;;;;;;;;;5084991;28;20437;-51
2021/11/05 02:24:37;;;;;;;;;;;;;;;;;;5084536;28;20368;-53
2021/11/05 02:27:03;;;;;;;;;;;;;;;;;;5068456;28;19956;-52
2021/11/05 02:29:29;;;;;;;;;;;;;;;;;;5065086;28;20431;-50
2021/11/05 02:31:55;;;;;;;;;;;;;;;;;;5067057;28;19904;-54
2021/11/05 02:34:21;;;;;;;;;;;;;;;;;;5068341;28;19916;-52
2021/11/05 02:36:48;;;;;;;;;;;;;;;;;;5068384;28;20381;-51
2021/11/05 02:39:15;;;;;;;;;;;;;;;;;;5068282;28;19904;-52
2021/11/05 02:41:41;;;;;;;;;;;;;;;;;;5068457;28;19904;-51
2021/11/05 02:44:08;;;;;;;;;;;;;;;;;;5068199;28;20430;-53
2021/11/05 02:46:34;;;;;;;;;;;;;;;;;;5067362;28;19912;-50
2021/11/05 02:49:00;;;;;;;;;;;;;;;;;;5069355;28;19950;-53
2021/11/05 02:51:27;;;;;;;;;;;;;;;;;;5068720;28;19913;-52
2021/11/05 02:53:53;;;;;;;;;;;;;;;;;;5067035;28;19909;-52
2021/11/05 02:56:19;;;;;;;;;;;;;;;;;;5068743;28;19908;-49
2021/11/05 02:58:45;;;;;;;;;;;;;;;;;;5068344;28;19969;-50
2021/11/05 03:01:12;;;;;;;;;;;;;;;;;;5068142;28;19905;-50
2021/11/05 03:03:38;;;;;;;;;;;;;;;;;;5068150;28;19943;-50
2021/11/05 03:06:04;;;;;;;;;;;;;;;;;;5067532;28;19967;-53
2021/11/05 03:08:30;;;;;;;;;;;;;;;;;;5066942;28;20712;-49
2021/11/05 03:10:56;;;;;;;;;;;;;;;;;;5067954;28;19915;-53
2021/11/05 03:13:22;;;;;;;;;;;;;;;;;;5067309;28;19913;-51
2021/11/05 03:15:48;;;;;;;;;;;;;;;;;;5067156;28;19919;-50
2021/11/05 03:18:14;;;;;;;;;;;;;;;;;;5067628;28;20371;-51
2021/11/05 03:20:41;;;;;;;;;;;;;;;;;;5067200;28;19962;-50
2021/11/05 03:23:07;;;;;;;;;;;;;;;;;;5067698;28;19999;-53
2021/11/05 03:25:33;;;;;;;;;;;;;;;;;;5066833;28;19990;-51
2021/11/05 03:27:59;;;;;;;;;;;;;;;;;;5067927;28;19904;-53
2021/11/05 03:30:25;;;;;;;;;;;;;;;;;;5067614;28;19914;-52
2021/11/05 03:32:51;;;;;;;;;;;;;;;;;;5067496;28;20676;-52
2021/11/05 03:35:18;;;;;;;;;;;;;;;;;;5067227;28;19954;-50
2021/11/05 03:37:44;;;;;;;;;;;;;;;;;;5067476;28;20415;-51
2021/11/05 03:40:10;;;;;;;;;;;;;;;;;;5067507;28;19999;-52
2021/11/05 03:42:36;;;;;;;;;;;;;;;;;;5066202;28;19963;-52
2021/11/05 03:45:02;;;;;;;;;;;;;;;;;;5067650;28;19932;-52
2021/11/05 03:47:28;;;;;;;;;;;;;;;;;;5067731;28;20398;-51
2021/11/05 03:49:53;;;;;;;;;;;;;;;;;;5066715;28;19905;-51
2021/11/05 03:52:19;;;;;;;;;;;;;;;;;;5066283;28;19999;-52
2021/11/05 03:54:45;;;;;;;;;;;;;;;;;;5066817;28;20354;-53
2021/11/05 03:57:12;;;;;;;;;;;;;;;;;;5066736;28;19908;-53
2021/11/05 03:59:38;;;;;;;;;;;;;;;;;;5067134;28;19904;-51
2021/11/05 04:02:05;;;;;;;;;;;;;;;;;;5085517;28;19908;-51
2021/11/05 04:04:31;;;;;;;;;;;;;;;;;;5086961;28;20378;-55
2021/11/05 04:06:57;;;;;;;;;;;;;;;;;;5087684;28;19908;-51
2021/11/05 04:09:23;;;;;;;;;;;;;;;;;;5086637;28;20449;-53
2021/11/05 04:11:49;;;;;;;;;;;;;;;;;;5084546;28;19961;-52
2021/11/05 04:14:15;;;;;;;;;;;;;;;;;;5086754;28;19908;-50
2021/11/05 04:16:41;;;;;;;;;;;;;;;;;;5086787;28;19904;-53
2021/11/05 04:19:07;;;;;;;;;;;;;;;;;;5086118;28;20271;-49
2021/11/05 04:21:33;;;;;;;;;;;;;;;;;;5084159;28;20165;-52
2021/11/05 04:24:01;;;;;;;;;;;;;;;;;;5087459;28;19988;-49
2021/11/05 04:26:27;;;;;;;;;;;;;;;;;;5086922;28;19926;-51
2021/11/05 04:28:54;;;;;;;;;;;;;;;;;;5086400;28;20379;-53
2021/11/05 04:31:20;;;;;;;;;;;;;;;;;;5084849;28;19934;-50
2021/11/05 04:33:46;;;;;;;;;;;;;;;;;;5086504;28;20433;-51
2021/11/05 04:36:12;;;;;;;;;;;;;;;;;;5086593;28;19904;-49
2021/11/05 04:38:39;;;;;;;;;;;;;;;;;;5085733;28;20379;-50
2021/11/05 04:41:05;;;;;;;;;;;;;;;;;;5065702;28;20146;-52
2021/11/05 04:43:31;;;;;;;;;;;;;;;;;;5065775;28;20341;-53
2021/11/05 04:45:58;;;;;;;;;;;;;;;;;;5066510;28;19959;-50
2021/11/05 04:48:24;;;;;;;;;;;;;;;;;;5065601;28;19966;-53
2021/11/05 04:50:51;;;;;;;;;;;;;;;;;;5066582;28;19912;-52
2021/11/05 04:53:18;;;;;;;;;;;;;;;;;;5065882;28;19908;-52
2021/11/05 04:55:45;;;;;;;;;;;;;;;;;;5064844;28;20333;-52
2021/11/05 04:58:11;;;;;;;;;;;;;;;;;;5065826;28;19915;-49
2021/11/05 05:00:36;;;;;;;;;;;;;;;;;;5070869;28;19912;-51
2021/11/05 05:03:03;;;;;;;;;;;;;;;;;;5086288;28;19908;-51
2021/11/05 05:05:29;;;;;;;;;;;;;;;;;;5086489;28;19900;-52
2021/11/05 05:07:57;;;;;;;;;;;;;;;;;;5086152;28;20040;-51
2021/11/05 05:10:23;;;;;;;;;;;;;;;;;;5070757;28;20353;-51
2021/11/05 05:12:48;;;;;;;;;;;;;;;;;;5064696;28;19998;-52
2021/11/05 05:15:15;;;;;;;;;;;;;;;;;;5065440;28;20109;-50
2021/11/05 05:17:41;;;;;;;;;;;;;;;;;;5065747;28;20186;-52
2021/11/05 05:20:08;;;;;;;;;;;;;;;;;;5065041;28;20702;-51
2021/11/05 05:22:35;;;;;;;;;;;;;;;;;;5065192;28;19905;-50
2021/11/05 05:25:02;;;;;;;;;;;;;;;;;;5066158;28;19908;-53
2021/11/05 05:27:28;;;;;;;;;;;;;;;;;;5065866;28;19990;-51
2021/11/05 05:29:54;;;;;;;;;;;;;;;;;;5065202;28;19915;-53
2021/11/05 05:32:20;;;;;;;;;;;;;;;;;;5065434;28;19908;-52
2021/11/05 05:34:46;;;;;;;;;;;;;;;;;;5065633;28;20314;-49
2021/11/05 05:37:12;;;;;;;;;;;;;;;;;;5065426;28;19912;-51
2021/11/05 05:39:39;;;;;;;;;;;;;;;;;;5065296;28;19915;-53
2021/11/05 05:42:05;;;;;;;;;;;;;;;;;;5065420;28;19930;-51
2021/11/05 05:44:31;;;;;;;;;;;;;;;;;;5065088;28;19919;-51
2021/11/05 05:46:59;;;;;;;;;;;;;;;;;;5066129;28;20334;-50
2021/11/05 05:49:26;;;;;;;;;;;;;;;;;;5065149;28;19908;-52
2021/11/05 05:51:51;;;;;;;;;;;;;;;;;;5065198;28;20007;-53
2021/11/05 05:54:17;;;;;;;;;;;;;;;;;;5064596;28;20166;-52
2021/11/05 05:56:44;;;;;;;;;;;;;;;;;;5065003;28;19905;-52
2021/11/05 05:59:10;;;;;;;;;;;;;;;;;;5065356;28;20028;-53
2021/11/05 06:01:37;;;;;;;;;;;;;;;;;;5074268;28;20182;-52
2021/11/05 06:04:03;;;;;;;;;;;;;;;;;;5072483;28;20298;-51
2021/11/05 06:06:29;;;;;;;;;;;;;;;;;;5077373;28;19908;-52
2021/11/05 06:08:55;;;;;;;;;;;;;;;;;;5090886;28;19966;-54
2021/11/05 06:11:21;;;;;;;;;;;;;;;;;;5090526;28;20536;-49
2021/11/05 06:13:48;;;;;;;;;;;;;;;;;;5090637;28;19939;-51
2021/11/05 06:16:14;;;;;;;;;;;;;;;;;;5089228;28;19908;-52
2021/11/05 06:18:40;;;;;;;;;;;;;;;;;;5090600;28;19926;-53
2021/11/05 06:21:05;;;;;;;;;;;;;;;;;;5089905;28;19904;-52
2021/11/05 06:23:32;;;;;;;;;;;;;;;;;;5089120;28;19911;-50
2021/11/05 06:25:58;;;;;;;;;;;;;;;;;;5085581;28;19943;-52
2021/11/05 06:28:25;;;;;;;;;;;;;;;;;;5070282;28;19905;-53
2021/11/05 06:30:51;;;;;;;;;;;;;;;;;;5072137;28;20402;-53
2021/11/05 06:33:18;;;;;;;;;;;;;;;;;;5089929;28;19908;-52
2021/11/05 06:35:44;;;;;;;;;;;;;;;;;;5087385;28;20423;-53
2021/11/05 06:38:10;;;;;;;;;;;;;;;;;;5090180;28;19922;-53
2021/11/05 06:40:36;;;;;;;;;;;;;;;;;;5081343;28;20268;-52
2021/11/05 06:43:02;;;;;;;;;;;;;;;;;;5073075;28;20020;-52
2021/11/05 06:45:30;;;;;;;;;;;;;;;;;;5069283;28;19909;-50
2021/11/05 06:47:56;;;;;;;;;;;;;;;;;;5075657;28;19919;-53
2021/11/05 06:50:22;;;;;;;;;;;;;;;;;;5090090;28;19904;-53
2021/11/05 06:52:48;;;;;;;;;;;;;;;;;;5072225;28;19924;-53
2021/11/05 06:55:14;;;;;;;;;;;;;;;;;;5068948;28;20000;-50
2021/11/05 06:57:40;;;;;;;;;;;;;;;;;;5069311;28;20430;-52
2021/11/05 07:00:06;;;;;;;;;;;;;;;;;;5070071;28;19913;-52
2021/11/05 07:02:32;;;;;;;;;;;;;;;;;;5071986;28;20239;-50
2021/11/05 07:04:58;;;;;;;;;;;;;;;;;;5067842;28;19948;-51
2021/11/05 07:07:24;;;;;;;;;;;;;;;;;;5067571;28;20414;-53
2021/11/05 07:09:50;;;;;;;;;;;;;;;;;;5067628;28;19916;-52
2021/11/05 07:12:16;;;;;;;;;;;;;;;;;;5067505;28;19916;-53
2021/11/05 07:14:43;;;;;;;;;;;;;;;;;;5067742;28;20151;-51
2021/11/05 07:17:09;;;;;;;;;;;;;;;;;;5066990;28;19995;-51
2021/11/05 07:19:35;;;;;;;;;;;;;;;;;;5067266;28;19999;-53
2021/11/05 07:22:04;;;;;;;;;;;;;;;;;;5066554;28;19914;-52
2021/11/05 07:24:30;;;;;;;;;;;;;;;;;;5067217;28;19912;-53
2021/11/05 07:26:56;;;;;;;;;;;;;;;;;;5067496;28;19914;-52
2021/11/05 07:29:28;;;;;;;;;;;;;;;;;;5067282;28;19904;-50
2021/11/05 07:31:54;;;;;;;;;;;;;;;;;;5067169;28;19905;-52
2021/11/05 07:34:19;;;;;;;;;;;;;;;;;;5067076;28;20425;-53
2021/11/05 07:36:45;;;;;;;;;;;;;;;;;;5066986;28;20359;-50
2021/11/05 07:39:11;;;;;;;;;;;;;;;;;;5067380;28;19914;-52
2021/11/05 07:41:37;;;;;;;;;;;;;;;;;;5067144;28;20543;-53
2021/11/05 07:44:04;;;;;;;;;;;;;;;;;;5067721;28;19915;-54
2021/11/05 07:46:31;;;;;;;;;;;;;;;;;;5067183;28;19904;-54
2021/11/05 07:48:57;;;;;;;;;;;;;;;;;;5067369;28;19911;-55
2021/11/05 07:51:23;;;;;;;;;;;;;;;;;;5067223;28;19908;-51
2021/11/05 07:53:50;;;;;;;;;;;;;;;;;;5066755;28;20314;-52
2021/11/05 07:56:16;;;;;;;;;;;;;;;;;;5066647;28;19908;-51
2021/11/05 07:58:43;;;;;;;;;;;;;;;;;;5067011;28;20109;-53
2021/11/05 08:01:10;;;;;;;;;;;;;;;;;;5067068;28;19997;-53
2021/11/05 08:03:36;;;;;;;;;;;;;;;;;;5067016;28;20453;-53
2021/11/05 08:06:03;;;;;;;;;;;;;;;;;;5067162;28;19993;-54
2021/11/05 08:08:29;;;;;;;;;;;;;;;;;;5066498;28;19908;-50
2021/11/05 08:10:56;;;;;;;;;;;;;;;;;;5066428;28;19912;-50
2021/11/05 08:13:22;;;;;;;;;;;;;;;;;;5066195;28;19908;-54
2021/11/05 08:15:47;;;;;;;;;;;;;;;;;;5066625;28;19912;-50
2021/11/05 08:18:14;;;;;;;;;;;;;;;;;;5065686;28;19904;-51
2021/11/05 08:20:41;;;;;;;;;;;;;;;;;;5065978;28;19912;-51
2021/11/05 08:23:08;;;;;;;;;;;;;;;;;;5070158;28;19995;-52
2021/11/05 08:25:34;;;;;;;;;;;;;;;;;;5070905;28;19926;-54
2021/11/05 08:28:00;;;;;;;;;;;;;;;;;;5071997;28;20415;-53
2021/11/05 08:30:26;;;;;;;;;;;;;;;;;;5078911;28;19919;-52
2021/11/05 08:32:52;;;;;;;;;;;;;;;;;;5076820;28;19931;-52
2021/11/05 08:35:19;;;;;;;;;;;;;;;;;;5068707;28;19978;-51
2021/11/05 08:37:45;;;;;;;;;;;;;;;;;;5079153;28;20375;-53
2021/11/05 08:40:11;;;;;;;;;;;;;;;;;;5065631;28;19912;-50
2021/11/05 08:42:37;;;;;;;;;;;;;;;;;;5066301;28;19916;-49
2021/11/05 08:45:02;;;;;;;;;;;;;;;;;;5076999;28;20307;-51
2021/11/05 08:47:28;;;;;;;;;;;;;;;;;;5085292;28;19912;-50
2021/11/05 08:49:55;;;;;;;;;;;;;;;;;;5072517;28;19904;-50
2021/11/05 08:52:22;;;;;;;;;;;;;;;;;;5065303;28;19908;-51
2021/11/05 08:54:48;;;;;;;;;;;;;;;;;;5066411;28;20013;-52
2021/11/05 08:57:14;;;;;;;;;;;;;;;;;;5066264;28;20379;-51
2021/11/05 08:59:40;;;;;;;;;;;;;;;;;;5074236;28;19908;-53
2021/11/05 09:02:06;;;;;;;;;;;;;;;;;;5075579;28;19932;-51
2021/11/05 09:04:32;;;;;;;;;;;;;;;;;;5077919;28;19916;-54
2021/11/05 09:06:57;;;;;;;;;;;;;;;;;;5080317;28;19907;-50
2021/11/05 09:09:23;;;;;;;;;;;;;;;;;;5079451;28;20371;-51
2021/11/05 09:11:49;;;;;;;;;;;;;;;;;;5073146;28;19909;-52
2021/11/05 09:14:16;;;;;;;;;;;;;;;;;;5066959;28;19917;-53
2021/11/05 09:16:43;;;;;;;;;;;;;;;;;;5067224;28;19999;-50
2021/11/05 09:19:09;;;;;;;;;;;;;;;;;;5066720;28;19954;-51
2021/11/05 09:21:35;;;;;;;;;;;;;;;;;;5079315;28;20341;-53
2021/11/05 09:24:01;;;;;;;;;;;;;;;;;;5073154;28;19962;-53
2021/11/05 09:26:27;;;;;;;;;;;;;;;;;;5070790;28;19915;-51
2021/11/05 09:28:53;;;;;;;;;;;;;;;;;;5077510;28;19904;-53
2021/11/05 09:31:19;;;;;;;;;;;;;;;;;;5087222;28;19908;-55
2021/11/05 09:33:46;;;;;;;;;;;;;;;;;;5086941;28;20143;-53
2021/11/05 09:36:12;;;;;;;;;;;;;;;;;;5076964;28;19912;-52
2021/11/05 09:38:38;;;;;;;;;;;;;;;;;;5077154;28;19909;-51
2021/11/05 09:41:04;;;;;;;;;;;;;;;;;;5072061;28;19965;-51
2021/11/05 09:43:31;;;;;;;;;;;;;;;;;;5092702;28;19904;-50
2021/11/05 09:45:58;;;;;;;;;;;;;;;;;;5091671;28;19908;-54
2021/11/05 09:48:24;;;;;;;;;;;;;;;;;;5093127;28;19908;-50
2021/11/05 09:50:50;;;;;;;;;;;;;;;;;;5093060;28;19911;-51
2021/11/05 09:53:16;;;;;;;;;;;;;;;;;;5093318;28;19911;-51
2021/11/05 09:55:42;;;;;;;;;;;;;;;;;;5088677;28;19961;-52
2021/11/05 09:58:08;;;;;;;;;;;;;;;;;;5072836;28;20666;-51
2021/11/05 10:00:34;;;;;;;;;;;;;;;;;;5085868;28;20371;-54
2021/11/05 10:03:01;;;;;;;;;;;;;;;;;;5091820;28;19911;-54
2021/11/05 10:05:27;;;;;;;;;;;;;;;;;;5078772;28;19931;-51
2021/11/05 10:07:53;;;;;;;;;;;;;;;;;;5073324;28;19908;-54
2021/11/05 10:10:19;;;;;;;;;;;;;;;;;;5072960;28;20456;-50
2021/11/05 10:12:44;;;;;;;;;;;;;;;;;;5072830;28;20280;-52
2021/11/05 10:15:10;;;;;;;;;;;;;;;;;;5072656;28;19958;-50
2021/11/05 10:17:36;;;;;;;;;;;;;;;;;;5073816;28;19995;-51
2021/11/05 10:20:03;;;;;;;;;;;;;;;;;;5072306;28;19908;-50
2021/11/05 10:22:30;;;;;;;;;;;;;;;;;;5082837;28;20032;-49
2021/11/05 10:24:56;;;;;;;;;;;;;;;;;;5072773;28;19948;-51
2021/11/05 10:27:23;;;;;;;;;;;;;;;;;;5071829;28;19958;-51
2021/11/05 10:29:51;;;;;;;;;;;;;;;;;;5073168;28;19909;-48
2021/11/05 10:32:18;;;;;;;;;;;;;;;;;;5073269;28;19950;-51
2021/11/05 10:34:45;;;;;;;;;;;;;;;;;;5083376;28;20133;-50
2021/11/05 10:37:11;;;;;;;;;;;;;;;;;;5092321;28;19911;-51
2021/11/05 10:39:37;;;;;;;;;;;;;;;;;;5092212;28;20426;-51
2021/11/05 10:42:04;;;;;;;;;;;;;;;;;;5092689;28;19912;-51
2021/11/05 10:44:31;;;;;;;;;;;;;;;;;;5084956;28;19908;-51
2021/11/05 10:46:56;;;;;;;;;;;;;;;;;;5087412;28;20367;-50
2021/11/05 10:49:24;;;;;;;;;;;;;;;;;;5092471;28;19911;-51
2021/11/05 10:51:51;;;;;;;;;;;;;;;;;;5091754;28;19996;-54
2021/11/05 10:54:17;;;;;;;;;;;;;;;;;;5088989;28;19930;-51
2021/11/05 10:56:45;;;;;;;;;;;;;;;;;;5089041;28;20010;-51
2021/11/05 10:59:11;;;;;;;;;;;;;;;;;;5080162;28;19952;-50
2021/11/05 11:01:37;;;;;;;;;;;;;;;;;;5088101;28;19952;-52
2021/11/05 11:04:02;;;;;;;;;;;;;;;;;;5089275;28;19904;-48
2021/11/05 11:06:29;;;;;;;;;;;;;;;;;;5088951;28;19990;-51
2021/11/05 11:08:55;;;;;;;;;;;;;;;;;;5088853;28;19904;-51
2021/11/05 11:11:22;;;;;;;;;;;;;;;;;;5088667;28;19916;-52
2021/11/05 11:13:48;;;;;;;;;;;;;;;;;;5080169;28;19919;-49
2021/11/05 11:16:14;;;;;;;;;;;;;;;;;;5068164;28;19908;-48
2021/11/05 11:18:40;;;;;;;;;;;;;;;;;;5067387;28;19913;-49
2021/11/05 11:21:07;;;;;;;;;;;;;;;;;;5068200;28;19919;-52
2021/11/05 11:23:34;;;;;;;;;;;;;;;;;;5068245;28;19916;-50
2021/11/05 11:26:00;;;;;;;;;;;;;;;;;;5068346;28;19958;-51
2021/11/05 11:28:25;;;;;;;;;;;;;;;;;;5068326;28;19908;-49
2021/11/05 11:30:52;;;;;;;;;;;;;;;;;;5085834;28;20004;-48
2021/11/05 11:33:18;;;;;;;;;;;;;;;;;;5088837;28;20006;-52
2021/11/05 11:35:44;;;;;;;;;;;;;;;;;;5088433;28;20365;-50
2021/11/05 11:38:11;;;;;;;;;;;;;;;;;;5088346;28;19917;-51
2021/11/05 11:40:37;;;;;;;;;;;;;;;;;;5086111;28;19904;-52
2021/11/05 11:43:03;;;;;;;;;;;;;;;;;;5075156;28;19978;-50
2021/11/05 11:45:29;;;;;;;;;;;;;;;;;;5088088;28;20382;-51
2021/11/05 11:47:57;;;;;;;;;;;;;;;;;;5088097;28;20011;-52
2021/11/05 11:50:24;;;;;;;;;;;;;;;;;;5079977;28;20433;-49
2021/11/05 11:52:50;;;;;;;;;;;;;;;;;;5068147;28;19962;-52
2021/11/05 11:55:17;;;;;;;;;;;;;;;;;;5068090;28;19955;-49
2021/11/05 11:57:43;;;;;;;;;;;;;;;;;;5068026;28;20367;-49
2021/11/05 12:00:09;;;;;;;;;;;;;;;;;;5077730;28;19914;-49
2021/11/05 12:02:36;;;;;;;;;;;;;;;;;;5071219;28;19908;-51
2021/11/05 12:05:01;;;;;;;;;;;;;;;;;;5067234;28;19940;-52
2021/11/05 12:07:28;;;;;;;;;;;;;;;;;;5067771;28;19971;-49
2021/11/05 12:09:54;;;;;;;;;;;;;;;;;;5076139;28;20011;-50
2021/11/05 12:12:21;;;;;;;;;;;;;;;;;;5070396;28;19991;-51
2021/11/05 12:14:48;;;;;;;;;;;;;;;;;;5066457;28;19912;-50
2021/11/05 12:17:14;;;;;;;;;;;;;;;;;;5077073;28;19912;-49
2021/11/05 12:19:40;;;;;;;;;;;;;;;;;;5065073;28;19912;-48
2021/11/05 12:22:07;;;;;;;;;;;;;;;;;;5072166;28;19931;-52
2021/11/05 12:24:33;;;;;;;;;;;;;;;;;;5087942;28;20353;-52
2021/11/05 12:27:00;;;;;;;;;;;;;;;;;;5083955;28;20002;-52
2021/11/05 12:29:27;;;;;;;;;;;;;;;;;;5085616;28;19912;-49
2021/11/05 12:31:53;;;;;;;;;;;;;;;;;;5086171;28;20428;-49
2021/11/05 12:34:19;;;;;;;;;;;;;;;;;;5082441;28;19913;-51
2021/11/05 12:36:45;;;;;;;;;;;;;;;;;;5066784;28;20019;-50
2021/11/05 12:39:12;;;;;;;;;;;;;;;;;;5066858;28;19908;-49
2021/11/05 12:41:38;;;;;;;;;;;;;;;;;;5067883;28;19908;-49
2021/11/05 12:44:04;;;;;;;;;;;;;;;;;;5087925;28;19919;-51
2021/11/05 12:46:30;;;;;;;;;;;;;;;;;;5087497;28;20025;-49
2021/11/05 12:48:56;;;;;;;;;;;;;;;;;;5082621;28;19908;-48
2021/11/05 12:51:22;;;;;;;;;;;;;;;;;;5077915;28;19999;-51
2021/11/05 12:53:48;;;;;;;;;;;;;;;;;;5066643;28;20427;-53
2021/11/05 12:56:14;;;;;;;;;;;;;;;;;;5067229;28;19999;-52
2021/11/05 12:58:40;;;;;;;;;;;;;;;;;;5067214;28;19915;-50
2021/11/05 13:01:07;;;;;;;;;;;;;;;;;;5067682;28;20003;-51
2021/11/05 13:03:33;;;;;;;;;;;;;;;;;;5082644;28;19914;-52
2021/11/05 13:06:00;;;;;;;;;;;;;;;;;;5084959;28;19912;-51
2021/11/05 13:08:26;;;;;;;;;;;;;;;;;;5066825;28;19912;-52
2021/11/05 13:10:52;;;;;;;;;;;;;;;;;;5067191;28;20377;-50
2021/11/05 13:13:18;;;;;;;;;;;;;;;;;;5067580;28;19912;-48
2021/11/05 13:15:44;;;;;;;;;;;;;;;;;;5070010;28;19915;-51
2021/11/05 13:18:10;;;;;;;;;;;;;;;;;;5084036;28;19904;-51
2021/11/05 13:20:36;;;;;;;;;;;;;;;;;;5086388;28;19990;-54
2021/11/05 13:23:02;;;;;;;;;;;;;;;;;;5086857;28;20430;-53
2021/11/05 13:25:28;;;;;;;;;;;;;;;;;;5086693;28;19904;-53
2021/11/05 13:27:54;;;;;;;;;;;;;;;;;;5087147;28;19934;-53
2021/11/05 13:30:20;;;;;;;;;;;;;;;;;;5083478;28;20376;-53
2021/11/05 13:32:46;;;;;;;;;;;;;;;;;;5084057;28;19918;-53
2021/11/05 13:35:13;;;;;;;;;;;;;;;;;;5070721;28;20398;-52
2021/11/05 13:37:40;;;;;;;;;;;;;;;;;;5076802;28;19954;-53
2021/11/05 13:40:07;;;;;;;;;;;;;;;;;;5074765;28;19920;-53
2021/11/05 13:42:34;;;;;;;;;;;;;;;;;;5073027;28;20512;-53
2021/11/05 13:45:00;;;;;;;;;;;;;;;;;;5066342;28;19940;-52
2021/11/05 13:47:26;;;;;;;;;;;;;;;;;;5065632;28;19951;-52
2021/11/05 13:49:52;;;;;;;;;;;;;;;;;;5074506;28;19966;-53
2021/11/05 13:52:18;;;;;;;;;;;;;;;;;;5080456;28;19908;-53
2021/11/05 13:54:44;;;;;;;;;;;;;;;;;;5086157;28;19923;-51
2021/11/05 13:57:11;;;;;;;;;;;;;;;;;;5085954;28;19904;-52
2021/11/05 13:59:38;;;;;;;;;;;;;;;;;;5086248;28;19946;-52
2021/11/05 14:02:04;;;;;;;;;;;;;;;;;;5086201;28;19904;-52
2021/11/05 14:04:31;;;;;;;;;;;;;;;;;;5085854;28;19904;-54
2021/11/05 14:06:57;;;;;;;;;;;;;;;;;;5074220;28;19991;-51
2021/11/05 14:09:23;;;;;;;;;;;;;;;;;;5066286;28;20509;-53
2021/11/05 14:11:49;;;;;;;;;;;;;;;;;;5067134;28;19912;-52
2021/11/05 14:14:15;;;;;;;;;;;;;;;;;;5065767;28;20287;-53
2021/11/05 14:16:41;;;;;;;;;;;;;;;;;;5065790;28;20797;-54
2021/11/05 14:19:07;;;;;;;;;;;;;;;;;;5065714;28;19904;-52
2021/11/05 14:21:33;;;;;;;;;;;;;;;;;;5063553;28;19908;-53
2021/11/05 14:23:59;;;;;;;;;;;;;;;;;;5078937;28;19915;-53
2021/11/05 14:26:25;;;;;;;;;;;;;;;;;;5075399;28;19908;-53
2021/11/05 14:28:52;;;;;;;;;;;;;;;;;;5070224;28;19962;-54
2021/11/05 14:31:18;;;;;;;;;;;;;;;;;;5069795;28;20393;-52
2021/11/05 14:33:44;;;;;;;;;;;;;;;;;;5068869;28;19908;-53
2021/11/05 14:36:10;;;;;;;;;;;;;;;;;;5076300;28;19930;-53
2021/11/05 14:38:37;;;;;;;;;;;;;;;;;;5089657;28;19916;-53
2021/11/05 14:41:03;;;;;;;;;;;;;;;;;;5081510;28;19908;-52
2021/11/05 14:43:30;;;;;;;;;;;;;;;;;;5072936;28;20279;-52
2021/11/05 14:45:56;;;;;;;;;;;;;;;;;;5085956;28;20087;-53
2021/11/05 14:48:23;;;;;;;;;;;;;;;;;;5069621;28;19911;-53
2021/11/05 14:50:49;;;;;;;;;;;;;;;;;;5073405;28;19904;-51
2021/11/05 14:53:14;;;;;;;;;;;;;;;;;;5089059;28;19938;-54
2021/11/05 14:55:40;;;;;;;;;;;;;;;;;;5089379;28;20354;-53
2021/11/05 14:58:06;;;;;;;;;;;;;;;;;;5089358;28;19912;-53
2021/11/05 15:00:33;;;;;;;;;;;;;;;;;;5089233;28;19904;-53
2021/11/05 15:03:00;;;;;;;;;;;;;;;;;;5087384;28;19947;-52
2021/11/05 15:05:27;;;;;;;;;;;;;;;;;;5088608;28;20488;-52
2021/11/05 15:07:52;;;;;;;;;;;;;;;;;;5088853;28;20291;-53
2021/11/05 15:10:18;;;;;;;;;;;;;;;;;;5073307;28;19912;-52
2021/11/05 15:12:44;;;;;;;;;;;;;;;;;;5068535;28;19916;-53
2021/11/05 15:15:10;;;;;;;;;;;;;;;;;;5068434;28;20426;-53
2021/11/05 15:17:36;;;;;;;;;;;;;;;;;;5070579;28;19912;-53
2021/11/05 15:20:03;;;;;;;;;;;;;;;;;;5087828;28;19955;-53
2021/11/05 15:22:29;;;;;;;;;;;;;;;;;;5094282;28;19912;-52
2021/11/05 15:24:55;;;;;;;;;;;;;;;;;;5073293;28;20370;-54
2021/11/05 15:27:21;;;;;;;;;;;;;;;;;;5077217;28;20374;-54
2021/11/05 15:29:47;;;;;;;;;;;;;;;;;;5081996;28;19955;-54
2021/11/05 15:32:14;;;;;;;;;;;;;;;;;;5073822;28;19916;-54
2021/11/05 15:34:41;;;;;;;;;;;;;;;;;;5087309;28;19919;-54
2021/11/05 15:37:08;;;;;;;;;;;;;;;;;;5088355;28;19946;-54
2021/11/05 15:39:33;;;;;;;;;;;;;;;;;;5086387;28;19912;-54
2021/11/05 15:42:00;;;;;;;;;;;;;;;;;;5088192;28;19914;-54
2021/11/05 15:44:26;;;;;;;;;;;;;;;;;;5073912;28;19927;-53
2021/11/05 15:46:52;;;;;;;;;;;;;;;;;;5086586;28;19933;-52
2021/11/05 15:49:18;;;;;;;;;;;;;;;;;;5085703;28;20055;-53
2021/11/05 15:51:44;;;;;;;;;;;;;;;;;;5078794;28;20066;-53
2021/11/05 15:54:10;;;;;;;;;;;;;;;;;;5076225;28;19923;-52
2021/11/05 15:56:36;;;;;;;;;;;;;;;;;;5072490;28;20006;-53
2021/11/05 15:59:02;;;;;;;;;;;;;;;;;;5087963;28;19960;-54
2021/11/05 16:01:28;;;;;;;;;;;;;;;;;;5087831;28;19935;-54
2021/11/05 16:03:54;;;;;;;;;;;;;;;;;;5087493;28;19961;-53
2021/11/05 16:06:21;;;;;;;;;;;;;;;;;;5086451;28;19916;-54
2021/11/05 16:08:47;;;;;;;;;;;;;;;;;;5087900;28;19908;-54
2021/11/05 16:11:14;;;;;;;;;;;;;;;;;;5087496;28;19922;-54
2021/11/05 16:13:40;;;;;;;;;;;;;;;;;;5087430;28;19908;-54
2021/11/05 16:16:06;;;;;;;;;;;;;;;;;;5087718;28;19915;-53
2021/11/05 16:18:32;;;;;;;;;;;;;;;;;;5087734;28;19904;-53
2021/11/05 16:20:59;;;;;;;;;;;;;;;;;;5085476;28;20367;-57
2021/11/05 16:23:26;;;;;;;;;;;;;;;;;;5066689;28;19916;-53
2021/11/05 16:25:52;;;;;;;;;;;;;;;;;;5070693;28;19908;-53
2021/11/05 16:28:17;;;;;;;;;;;;;;;;;;5067176;28;19915;-53
2021/11/05 16:30:43;;;;;;;;;;;;;;;;;;5067327;28;19912;-53
2021/11/05 16:33:09;;;;;;;;;;;;;;;;;;5067787;28;19993;-55
2021/11/05 16:35:35;;;;;;;;;;;;;;;;;;5067850;28;19904;-55
2021/11/05 16:38:01;;;;;;;;;;;;;;;;;;5068317;28;20381;-53